createdAt,value
2022-11-24T00:02:44.354Z,3.4
2022-11-24T00:07:42.232Z,3.3
2022-11-24T00:12:40.604Z,3.5
2022-11-24T00:17:39.249Z,3.7
2022-11-24T00:22:37.499Z,3.7
2022-11-24T00:27:35.868Z,3.5
2022-11-24T00:32:34.010Z,3.2
2022-11-24T00:37:32.088Z,2.9
2022-11-24T00:42:30.134Z,2.8
2022-11-24T00:47:28.223Z,2.8
2022-11-24T00:52:26.445Z,2.8
2022-11-24T00:57:24.725Z,2.7
2022-11-24T01:02:22.992Z,2.8
2022-11-24T01:07:21.710Z,2.8
2022-11-24T01:12:20.055Z,2.9
2022-11-24T01:17:18.479Z,3
2022-11-24T01:22:16.935Z,3.1
2022-11-24T01:27:15.311Z,3.4
2022-11-24T01:32:14.020Z,3.5
2022-11-24T01:37:12.486Z,3.8
2022-11-24T01:42:10.984Z,4.1
2022-11-24T01:47:09.366Z,4.2
2022-11-24T01:52:07.789Z,4.4
2022-11-24T01:57:06.084Z,4.6
2022-11-24T02:02:04.620Z,4.7
2022-11-24T02:07:02.775Z,4.5
2022-11-24T02:12:00.851Z,4.4
2022-11-24T02:16:59.176Z,4.6
2022-11-24T02:21:57.194Z,4.3
2022-11-24T02:26:55.277Z,4.3
2022-11-24T02:31:53.592Z,4.4
2022-11-24T02:36:51.859Z,4.2
2022-11-24T02:41:49.943Z,4.2
2022-11-24T02:46:48.033Z,4.1
2022-11-24T02:51:46.160Z,4.1
2022-11-24T02:56:44.366Z,4.1
2022-11-24T03:01:42.634Z,4.3
2022-11-24T03:06:40.819Z,4.5
2022-11-24T03:11:39.080Z,4.4
2022-11-24T03:16:37.194Z,4.5
2022-11-24T03:21:35.413Z,4.5
2022-11-24T03:26:33.498Z,4.6
2022-11-24T03:31:31.872Z,4.6
2022-11-24T03:36:30.088Z,4.8
2022-11-24T03:41:28.375Z,4.6
2022-11-24T03:46:26.364Z,4.6
2022-11-24T03:51:24.527Z,4.6
2022-11-24T03:56:22.721Z,4.5
2022-11-24T04:01:20.943Z,4.7
2022-11-24T04:06:19.175Z,4.7
2022-11-24T04:11:17.437Z,4.8
2022-11-24T04:16:15.831Z,4.7
2022-11-24T04:21:14.044Z,4.6
2022-11-24T04:26:12.239Z,4.6
2022-11-24T04:31:10.714Z,4.9
2022-11-24T04:36:08.652Z,4.7
2022-11-24T04:41:06.881Z,4.8
2022-11-24T04:46:04.940Z,4.9
2022-11-24T04:51:03.067Z,4.7
2022-11-24T04:56:01.144Z,4.8
2022-11-24T05:00:59.426Z,4.8
2022-11-24T05:05:57.588Z,5
2022-11-24T05:10:55.933Z,5.1
2022-11-24T05:15:54.259Z,5.1
2022-11-24T05:20:52.668Z,5.2
2022-11-24T05:25:51.012Z,5.2
2022-11-24T05:30:49.343Z,5.2
2022-11-24T05:35:47.522Z,5.3
2022-11-24T05:40:45.784Z,5.2
2022-11-24T05:45:44.033Z,5.3
2022-11-24T05:50:42.503Z,5.3
2022-11-24T05:55:40.708Z,5.3
2022-11-24T06:00:38.765Z,5.6
2022-11-24T06:05:36.949Z,5.6
2022-11-24T06:10:35.326Z,5.8
2022-11-24T06:15:33.420Z,5.9
2022-11-24T06:20:32.964Z,6.3
2022-11-24T06:25:31.193Z,6.6
2022-11-24T06:30:30.086Z,7.1
2022-11-24T06:35:28.645Z,7.5
2022-11-24T06:40:28.307Z,8.1
2022-11-24T06:45:26.507Z,7.8
2022-11-24T06:50:28.029Z,8
2022-11-24T06:55:23.726Z,8.4
2022-11-24T07:00:22.153Z,8.7
2022-11-24T07:05:20.844Z,8.9
2022-11-24T07:10:19.528Z,9.1
2022-11-24T07:15:18.261Z,9.6
2022-11-24T07:20:16.930Z,10.3
2022-11-24T07:25:15.801Z,10.9
2022-11-24T07:30:14.603Z,11.4
2022-11-24T07:35:13.252Z,11.7
2022-11-24T07:40:11.958Z,11.9
2022-11-24T07:45:10.233Z,12
2022-11-24T07:50:08.780Z,12.8
2022-11-24T07:55:07.813Z,13.4
2022-11-24T08:00:06.684Z,14.3
2022-11-24T08:05:06.115Z,15.4
2022-11-24T08:10:04.060Z,15.3
2022-11-24T08:15:06.587Z,16.1
2022-11-24T08:20:01.041Z,16.3
2022-11-24T08:25:01.211Z,17.8
2022-11-24T08:29:57.985Z,16
2022-11-24T08:34:59.559Z,14.8
2022-11-24T08:39:51.985Z,14.4
2022-11-24T08:44:50.079Z,14.5
2022-11-24T08:49:48.262Z,14.4
2022-11-24T08:54:46.643Z,14.7
2022-11-24T08:59:44.632Z,14.3
2022-11-24T09:04:41.843Z,13.3
2022-11-24T09:09:39.189Z,12.6
2022-11-24T09:14:36.987Z,12.3
2022-11-24T09:19:35.088Z,11.9
2022-11-24T09:24:32.547Z,11.3
2022-11-24T09:29:30.569Z,11
2022-11-24T09:34:28.592Z,10.8
2022-11-24T09:39:26.955Z,11.1
2022-11-24T09:44:25.986Z,11.6
2022-11-24T09:49:23.912Z,11.1
2022-11-24T09:54:21.743Z,10.2
2022-11-24T09:59:19.653Z,9.7
2022-11-24T10:04:17.679Z,9.4
2022-11-24T10:09:15.921Z,9.4
2022-11-24T10:14:14.558Z,9.5
2022-11-24T10:19:12.702Z,9.4
2022-11-24T10:24:10.990Z,9.2
2022-11-24T10:29:09.291Z,9.2
2022-11-24T10:34:07.455Z,9.4
2022-11-24T10:39:05.981Z,9.5
2022-11-24T10:44:04.381Z,9.9
2022-11-24T10:49:02.991Z,10.4
2022-11-24T10:54:01.850Z,10.7
2022-11-24T10:59:00.377Z,11
2022-11-24T11:03:58.714Z,11.1
2022-11-24T11:08:56.621Z,10.9
2022-11-24T11:13:59.985Z,10.7
2022-11-24T11:18:53.319Z,10.9
2022-11-24T11:23:51.082Z,10.6
2022-11-24T11:28:49.757Z,11
2022-11-24T11:34:05.239Z,11.1
2022-11-24T11:38:46.507Z,11.1
2022-11-24T11:43:45.048Z,11.4
2022-11-24T11:48:44.099Z,11.4
2022-11-24T11:53:41.738Z,11.5
2022-11-24T11:58:40.104Z,11.4
2022-11-24T12:03:38.491Z,11.2
2022-11-24T12:08:56.237Z,10.7
2022-11-24T12:13:34.339Z,10.5
2022-11-24T12:18:56.280Z,10.4
2022-11-24T12:23:30.925Z,10.4
2022-11-24T12:28:29.012Z,10.2
2022-11-24T12:33:27.234Z,10.2
2022-11-24T12:38:25.220Z,10.1
2022-11-24T12:43:23.597Z,10.3
2022-11-24T12:48:22.132Z,11.1
2022-11-24T12:53:20.801Z,11.6
2022-11-24T12:58:19.215Z,11.3
2022-11-24T13:03:17.244Z,11.3
2022-11-24T13:08:15.473Z,11.5
2022-11-24T13:13:13.806Z,11.7
2022-11-24T13:18:12.700Z,11.8
2022-11-24T13:23:13.596Z,11.9
2022-11-24T13:28:09.096Z,11.9
2022-11-24T13:33:07.026Z,11.7
2022-11-24T13:38:05.271Z,11.7
2022-11-24T13:43:03.241Z,11.2
2022-11-24T13:48:00.684Z,10.4
2022-11-24T13:52:58.105Z,10.2
2022-11-24T13:57:55.976Z,10.1
2022-11-24T14:02:53.971Z,9.7
2022-11-24T14:07:51.551Z,9.1
2022-11-24T14:12:49.066Z,8.5
2022-11-24T14:17:46.788Z,8
2022-11-24T14:22:44.728Z,7.8
2022-11-24T14:27:42.691Z,7.5
2022-11-24T14:32:40.485Z,7.3
2022-11-24T14:37:38.782Z,7.2
2022-11-24T14:42:36.648Z,6.8
2022-11-24T14:47:34.407Z,6.3
2022-11-24T14:52:32.189Z,5.5
2022-11-24T14:57:30.125Z,5.3
2022-11-24T15:02:28.149Z,5
2022-11-24T15:07:26.219Z,4.8
2022-11-24T15:12:24.237Z,4.9
2022-11-24T15:17:22.746Z,4.9
2022-11-24T15:22:21.093Z,5
2022-11-24T15:27:19.506Z,5
2022-11-24T15:32:17.768Z,5
2022-11-24T15:37:16.371Z,5.1
2022-11-24T15:42:14.481Z,4.8
2022-11-24T15:47:12.557Z,4.8
2022-11-24T15:52:10.733Z,4.8
2022-11-24T15:57:09.019Z,4.9
2022-11-24T16:02:07.513Z,4.9
2022-11-24T16:07:05.704Z,5.1
2022-11-24T16:12:03.631Z,5
2022-11-24T16:17:01.751Z,5
2022-11-24T16:21:59.824Z,5.1
2022-11-24T16:26:57.626Z,5
2022-11-24T16:31:55.750Z,5
2022-11-24T16:36:54.168Z,5
2022-11-24T16:41:52.430Z,4.8
2022-11-24T16:46:50.625Z,5
2022-11-24T16:51:48.852Z,4.9
2022-11-24T16:56:47.000Z,4.8
2022-11-24T17:01:45.453Z,5
2022-11-24T17:06:43.391Z,4.9
2022-11-24T17:11:41.490Z,4.8
2022-11-24T17:16:39.976Z,5
2022-11-24T17:21:38.271Z,4.9
2022-11-24T17:26:36.748Z,4.9
2022-11-24T17:31:35.049Z,4.9
2022-11-24T17:36:33.314Z,4.8
2022-11-24T17:41:31.509Z,4.8
2022-11-24T17:46:29.832Z,4.8
2022-11-24T17:51:28.328Z,4.8
2022-11-24T17:56:26.653Z,4.7
2022-11-24T18:01:25.079Z,4.8
2022-11-24T18:06:23.379Z,4.7
2022-11-24T18:11:24.756Z,4.7
2022-11-24T18:16:19.786Z,4.7
2022-11-24T18:21:17.849Z,4.8
2022-11-24T18:26:16.356Z,4.9
2022-11-24T18:31:15.333Z,4.8
2022-11-24T18:36:13.756Z,4.7
2022-11-24T18:41:11.945Z,4.9
2022-11-24T18:46:10.519Z,4.9
2022-11-24T18:51:08.954Z,4.9
2022-11-24T18:56:07.627Z,4.9
2022-11-24T19:01:06.091Z,5
2022-11-24T19:06:04.250Z,4.9
2022-11-24T19:11:02.709Z,4.9
2022-11-24T19:16:01.457Z,4.8
2022-11-24T19:20:59.701Z,4.8
2022-11-24T19:25:58.017Z,4.8
2022-11-24T19:30:56.266Z,4.8
2022-11-24T19:35:54.782Z,4.8
2022-11-24T19:40:53.100Z,4.8
2022-11-24T19:45:51.452Z,4.7
2022-11-24T19:50:49.808Z,4.6
2022-11-24T19:55:48.089Z,4.6
2022-11-24T20:00:46.461Z,4.6
2022-11-24T20:05:44.675Z,4.7
2022-11-24T20:10:43.055Z,4.6
2022-11-24T20:15:41.499Z,4.6
2022-11-24T20:20:39.759Z,4.5
2022-11-24T20:25:37.940Z,4.3
2022-11-24T20:30:36.030Z,4.3
2022-11-24T20:35:34.339Z,4.3
2022-11-24T20:40:32.703Z,4.2
2022-11-24T20:45:31.112Z,4.2
2022-11-24T20:50:29.543Z,4.2
2022-11-24T20:55:27.959Z,4.2
2022-11-24T21:00:26.246Z,4.2
2022-11-24T21:05:24.843Z,4.1
2022-11-24T21:10:23.151Z,4.2
2022-11-24T21:15:21.648Z,4.2
2022-11-24T21:20:19.954Z,4.2
2022-11-24T21:25:18.210Z,4.3
2022-11-24T21:30:16.507Z,4.2
2022-11-24T21:35:14.616Z,4.3
2022-11-24T21:40:13.079Z,4.3
2022-11-24T21:45:11.665Z,4.2
2022-11-24T21:50:09.819Z,4.3
2022-11-24T21:55:07.931Z,4.3
2022-11-24T22:00:06.001Z,4.3
2022-11-24T22:05:04.120Z,4.3
2022-11-24T22:10:02.736Z,4.3
2022-11-24T22:15:00.941Z,4.4
2022-11-24T22:19:59.285Z,4.4
2022-11-24T22:24:57.483Z,4.4
2022-11-24T22:29:55.641Z,4.5
2022-11-24T22:34:53.906Z,4.4
2022-11-24T22:39:52.133Z,4.3
2022-11-24T22:44:50.273Z,4.3
2022-11-24T22:49:48.353Z,4.2
2022-11-24T22:54:46.677Z,4.3
2022-11-24T22:59:44.809Z,4.4
2022-11-24T23:04:42.907Z,4.4
2022-11-24T23:09:41.019Z,4.5
2022-11-24T23:14:39.178Z,4.5
2022-11-24T23:19:37.268Z,4.5
2022-11-24T23:24:35.804Z,4.5
2022-11-24T23:29:34.288Z,4.4
2022-11-24T23:34:32.812Z,4.4
2022-11-24T23:39:30.800Z,4.4
2022-11-24T23:44:29.365Z,4.3
2022-11-24T23:49:27.818Z,4.4
2022-11-24T23:54:26.180Z,4.5
2022-11-24T23:59:24.572Z,4.4
